Explorer — WBN7618 — position and weather

sailwx.info

Track history (hours):
 
Tides and Currents Weather Stations Pressure Air Temp Water Temp Dewpoint Dewpoint Depression Visibility Wind Speed Wind Dir Waves Ship Positions

Explorer

Owner: Crowley Puerto Rico Services, Inc, Jacksonville, FL. More information available from US FCC via Universal Licensing System and Coast Guard Vessel Documentation Center.

Last reported at 2018-Apr-14 19:57 UTC. Time now 2018-Apr-22 14:09 UTC.
Position N 26°30' W 076°45'.

; draft 5.4 m.

Type: Towing. MMSI: 366766860.

Date/timePositionNaut miles runAvg speedWind from/ knotsBaromVisibWave heightAir tempDewpointWater temp
2018-Apr-14 19:57N 26°30' W 076°45'2 3.8
2018-Apr-14 19:29N 26°31' W 076°46'2 3.9
2018-Apr-14 19:00N 26°33' W 076°47'2 3.9
2018-Apr-14 18:31N 26°34' W 076°49'2 3.9
2018-Apr-14 18:00N 26°36' W 076°50'2 3.9
2018-Apr-14 17:30N 26°37' W 076°52'2 3.7
2018-Apr-14 17:00N 26°38' W 076°53'2 4.4
2018-Apr-14 16:30N 26°40' W 076°55'4 7.5
2018-Apr-14 16:00N 26°42' W 076°58'  
2018-Apr-10 12:46N 26°47' W 077°03'2 9.3
2018-Apr-10 12:30N 26°46' W 077°01'5 9.4
2018-Apr-10 11:58N 26°44' W 076°56'  
2018-Apr-07 04:52N 18°19' W 065°07'411.2
2018-Apr-07 04:31N 18°17' W 065°04'5 9.9
2018-Apr-07 04:00N 18°16' W 064°59'4 7.9
2018-Apr-07 03:31N 18°19' W 064°56'1 2.3
2018-Apr-07 03:00N 18°20' W 064°57'0 0.0
2018-Apr-07 02:30N 18°20' W 064°57'0 0.0
2018-Apr-07 02:00N 18°20' W 064°57'0 0.0
2018-Apr-07 01:29N 18°20' W 064°57'0 0.0
2018-Apr-07 01:00N 18°20' W 064°57'0 0.0
2018-Apr-07 00:30N 18°20' W 064°57'0 0.0
2018-Apr-07 00:00N 18°20' W 064°57'0 0.0
2018-Apr-06 23:29N 18°20' W 064°57'0 0.0
2018-Apr-06 23:00N 18°20' W 064°57'0 0.0
2018-Apr-06 22:30N 18°20' W 064°57'0 0.0
2018-Apr-06 22:00N 18°20' W 064°57'0 0.0
2018-Apr-06 21:30N 18°20' W 064°57'0 0.0
2018-Apr-06 21:00N 18°20' W 064°57'0 0.0
2018-Apr-06 20:30N 18°20' W 064°57'0 0.0
2018-Apr-06 20:00N 18°20' W 064°57'0 0.0
2018-Apr-06 19:30N 18°20' W 064°57'0 0.0
2018-Apr-06 19:00N 18°20' W 064°57'0 0.0
2018-Apr-06 18:30N 18°20' W 064°57'0 0.0
2018-Apr-06 18:00N 18°20' W 064°57'0 0.0
2018-Apr-06 17:30N 18°20' W 064°57'0 0.0
2018-Apr-06 17:00N 18°20' W 064°57'0 0.0
2018-Apr-06 16:30N 18°20' W 064°57'0 0.0
2018-Apr-06 16:00N 18°20' W 064°57'0 0.0
2018-Apr-06 15:30N 18°20' W 064°57'0 0.0
2018-Apr-06 14:59N 18°20' W 064°57'0 0.0
2018-Apr-06 14:30N 18°20' W 064°57'0 0.0
2018-Apr-06 14:00N 18°20' W 064°57'0 0.0
2018-Apr-06 13:30N 18°20' W 064°57'0 0.0
2018-Apr-06 12:58N 18°20' W 064°57'0 0.0
2018-Apr-06 12:30N 18°20' W 064°57'0 0.0
2018-Apr-06 12:00N 18°20' W 064°57'0 0.2
2018-Apr-06 11:30N 18°20' W 064°57'2 3.3
2018-Apr-06 11:00N 18°19' W 064°58'3 5.6
2018-Apr-06 10:30N 18°17' W 065°00'1 2.1
2018-Apr-06 10:00N 18°17' W 065°02'  
Track history (hours):
 
Tides and Currents Weather Stations Pressure Air Temp Water Temp Dewpoint Dewpoint Depression Visibility Wind Speed Wind Dir Waves Ship Positions

Explorer

Owner: Crowley Puerto Rico Services, Inc, Jacksonville, FL. More information available from US FCC via Universal Licensing System and Coast Guard Vessel Documentation Center.

Last reported at 2018-Apr-14 19:57 UTC. Time now 2018-Apr-22 14:09 UTC.
Position N 26°30' W 076°45'.

; draft 5.4 m.

Type: Towing. MMSI: 366766860.

Date/timePositionNaut miles runAvg speedWind from/ knotsBaromVisibWave heightAir tempDewpointWater temp
2018-Apr-14 19:57N 26°30' W 076°45'2 3.8
2018-Apr-14 19:29N 26°31' W 076°46'2 3.9
2018-Apr-14 19:00N 26°33' W 076°47'2 3.9
2018-Apr-14 18:31N 26°34' W 076°49'2 3.9
2018-Apr-14 18:00N 26°36' W 076°50'2 3.9
2018-Apr-14 17:30N 26°37' W 076°52'2 3.7
2018-Apr-14 17:00N 26°38' W 076°53'2 4.4
2018-Apr-14 16:30N 26°40' W 076°55'4 7.5
2018-Apr-14 16:00N 26°42' W 076°58'  
2018-Apr-10 12:46N 26°47' W 077°03'2 9.3
2018-Apr-10 12:30N 26°46' W 077°01'5 9.4
2018-Apr-10 11:58N 26°44' W 076°56'  
2018-Apr-07 04:52N 18°19' W 065°07'411.2
2018-Apr-07 04:31N 18°17' W 065°04'5 9.9
2018-Apr-07 04:00N 18°16' W 064°59'4 7.9
2018-Apr-07 03:31N 18°19' W 064°56'1 2.3
2018-Apr-07 03:00N 18°20' W 064°57'0 0.0
2018-Apr-07 02:30N 18°20' W 064°57'0 0.0
2018-Apr-07 02:00N 18°20' W 064°57'0 0.0
2018-Apr-07 01:29N 18°20' W 064°57'0 0.0
2018-Apr-07 01:00N 18°20' W 064°57'0 0.0
2018-Apr-07 00:30N 18°20' W 064°57'0 0.0
2018-Apr-07 00:00N 18°20' W 064°57'0 0.0
2018-Apr-06 23:29N 18°20' W 064°57'0 0.0
2018-Apr-06 23:00N 18°20' W 064°57'0 0.0
2018-Apr-06 22:30N 18°20' W 064°57'0 0.0
2018-Apr-06 22:00N 18°20' W 064°57'0 0.0
2018-Apr-06 21:30N 18°20' W 064°57'0 0.0
2018-Apr-06 21:00N 18°20' W 064°57'0 0.0
2018-Apr-06 20:30N 18°20' W 064°57'0 0.0
2018-Apr-06 20:00N 18°20' W 064°57'0 0.0
2018-Apr-06 19:30N 18°20' W 064°57'0 0.0
2018-Apr-06 19:00N 18°20' W 064°57'0 0.0
2018-Apr-06 18:30N 18°20' W 064°57'0 0.0
2018-Apr-06 18:00N 18°20' W 064°57'0 0.0
2018-Apr-06 17:30N 18°20' W 064°57'0 0.0
2018-Apr-06 17:00N 18°20' W 064°57'0 0.0
2018-Apr-06 16:30N 18°20' W 064°57'0 0.0
2018-Apr-06 16:00N 18°20' W 064°57'0 0.0
2018-Apr-06 15:30N 18°20' W 064°57'0 0.0
2018-Apr-06 14:59N 18°20' W 064°57'0 0.0
2018-Apr-06 14:30N 18°20' W 064°57'0 0.0
2018-Apr-06 14:00N 18°20' W 064°57'0 0.0
2018-Apr-06 13:30N 18°20' W 064°57'0 0.0
2018-Apr-06 12:58N 18°20' W 064°57'0 0.0
2018-Apr-06 12:30N 18°20' W 064°57'0 0.0
2018-Apr-06 12:00N 18°20' W 064°57'0 0.2
2018-Apr-06 11:30N 18°20' W 064°57'2 3.3
2018-Apr-06 11:00N 18°19' W 064°58'3 5.6
2018-Apr-06 10:30N 18°17' W 065°00'1 2.1
2018-Apr-06 10:00N 18°17' W 065°02'  

Dump ship's entire track history